sensor_id;sensor_type;location;lat;lon;timestamp;P1;durP1;ratioP1;P2;durP2;ratioP2
6105;SDS011;3083;51.508;7.966;2023-04-21T00:00:16;33.57;;;14.30;;
6105;SDS011;3083;51.508;7.966;2023-04-21T00:02:43;37.13;;;15.73;;
6105;SDS011;3083;51.508;7.966;2023-04-21T00:05:11;32.70;;;13.97;;
6105;SDS011;3083;51.508;7.966;2023-04-21T00:07:39;34.37;;;14.13;;
6105;SDS011;3083;51.508;7.966;2023-04-21T00:10:07;32.43;;;13.50;;
6105;SDS011;3083;51.508;7.966;2023-04-21T00:12:34;36.00;;;13.53;;
6105;SDS011;3083;51.508;7.966;2023-04-21T00:15:01;35.00;;;15.57;;
6105;SDS011;3083;51.508;7.966;2023-04-21T00:17:29;29.57;;;13.07;;
6105;SDS011;3083;51.508;7.966;2023-04-21T00:19:56;38.27;;;15.07;;
6105;SDS011;3083;51.508;7.966;2023-04-21T00:22:22;39.73;;;15.53;;
6105;SDS011;3083;51.508;7.966;2023-04-21T00:24:51;36.70;;;14.63;;
6105;SDS011;3083;51.508;7.966;2023-04-21T00:27:18;25.77;;;11.90;;
6105;SDS011;3083;51.508;7.966;2023-04-21T00:29:45;37.00;;;16.00;;
6105;SDS011;3083;51.508;7.966;2023-04-21T00:32:12;34.23;;;15.30;;
6105;SDS011;3083;51.508;7.966;2023-04-21T00:34:38;37.27;;;15.47;;
6105;SDS011;3083;51.508;7.966;2023-04-21T00:37:05;37.17;;;15.17;;
6105;SDS011;3083;51.508;7.966;2023-04-21T00:39:32;37.17;;;15.33;;
6105;SDS011;3083;51.508;7.966;2023-04-21T00:42:01;35.17;;;15.63;;
6105;SDS011;3083;51.508;7.966;2023-04-21T00:44:28;39.10;;;15.10;;
6105;SDS011;3083;51.508;7.966;2023-04-21T00:46:55;34.40;;;14.03;;
6105;SDS011;3083;51.508;7.966;2023-04-21T00:49:22;39.23;;;15.13;;
6105;SDS011;3083;51.508;7.966;2023-04-21T00:51:50;37.17;;;15.83;;
6105;SDS011;3083;51.508;7.966;2023-04-21T00:54:18;42.50;;;17.50;;
6105;SDS011;3083;51.508;7.966;2023-04-21T00:56:45;40.73;;;15.10;;
6105;SDS011;3083;51.508;7.966;2023-04-21T00:59:14;41.83;;;17.17;;
6105;SDS011;3083;51.508;7.966;2023-04-21T01:01:40;37.13;;;16.70;;
6105;SDS011;3083;51.508;7.966;2023-04-21T01:04:08;31.73;;;15.73;;
6105;SDS011;3083;51.508;7.966;2023-04-21T01:06:35;38.27;;;15.70;;
6105;SDS011;3083;51.508;7.966;2023-04-21T01:09:02;45.70;;;17.43;;
6105;SDS011;3083;51.508;7.966;2023-04-21T01:11:29;38.63;;;16.27;;
6105;SDS011;3083;51.508;7.966;2023-04-21T01:13:56;37.63;;;16.33;;
6105;SDS011;3083;51.508;7.966;2023-04-21T01:16:25;41.83;;;16.93;;
6105;SDS011;3083;51.508;7.966;2023-04-21T01:18:52;38.53;;;16.67;;
6105;SDS011;3083;51.508;7.966;2023-04-21T01:21:19;42.60;;;16.40;;
6105;SDS011;3083;51.508;7.966;2023-04-21T01:23:47;35.70;;;16.83;;
6105;SDS011;3083;51.508;7.966;2023-04-21T01:26:16;41.07;;;16.93;;
6105;SDS011;3083;51.508;7.966;2023-04-21T01:28:43;39.03;;;16.13;;
6105;SDS011;3083;51.508;7.966;2023-04-21T01:31:11;37.93;;;16.63;;
6105;SDS011;3083;51.508;7.966;2023-04-21T01:33:38;39.93;;;16.53;;
6105;SDS011;3083;51.508;7.966;2023-04-21T01:36:06;38.93;;;17.37;;
6105;SDS011;3083;51.508;7.966;2023-04-21T01:38:37;34.73;;;16.37;;
6105;SDS011;3083;51.508;7.966;2023-04-21T01:41:06;36.37;;;15.63;;
6105;SDS011;3083;51.508;7.966;2023-04-21T01:43:34;38.33;;;17.17;;
6105;SDS011;3083;51.508;7.966;2023-04-21T01:46:01;40.80;;;17.50;;
6105;SDS011;3083;51.508;7.966;2023-04-21T01:48:28;35.00;;;16.57;;
6105;SDS011;3083;51.508;7.966;2023-04-21T01:50:55;43.63;;;17.53;;
6105;SDS011;3083;51.508;7.966;2023-04-21T01:53:22;37.93;;;16.63;;
6105;SDS011;3083;51.508;7.966;2023-04-21T01:55:50;39.53;;;17.80;;
6105;SDS011;3083;51.508;7.966;2023-04-21T01:58:19;40.93;;;17.27;;
6105;SDS011;3083;51.508;7.966;2023-04-21T02:00:46;44.77;;;17.93;;
6105;SDS011;3083;51.508;7.966;2023-04-21T02:03:13;36.97;;;16.63;;
6105;SDS011;3083;51.508;7.966;2023-04-21T02:05:40;36.93;;;15.63;;
6105;SDS011;3083;51.508;7.966;2023-04-21T02:08:06;36.97;;;17.47;;
6105;SDS011;3083;51.508;7.966;2023-04-21T02:10:33;35.53;;;16.07;;
6105;SDS011;3083;51.508;7.966;2023-04-21T02:13:00;40.83;;;17.73;;
6105;SDS011;3083;51.508;7.966;2023-04-21T02:15:28;41.03;;;18.10;;
6105;SDS011;3083;51.508;7.966;2023-04-21T02:17:55;42.97;;;17.50;;
6105;SDS011;3083;51.508;7.966;2023-04-21T02:20:22;42.33;;;17.20;;
6105;SDS011;3083;51.508;7.966;2023-04-21T02:22:49;44.07;;;18.23;;
6105;SDS011;3083;51.508;7.966;2023-04-21T02:25:16;36.63;;;16.67;;
6105;SDS011;3083;51.508;7.966;2023-04-21T02:27:44;40.83;;;17.47;;
6105;SDS011;3083;51.508;7.966;2023-04-21T02:30:11;38.03;;;17.43;;
6105;SDS011;3083;51.508;7.966;2023-04-21T02:32:39;41.03;;;17.90;;
6105;SDS011;3083;51.508;7.966;2023-04-21T02:35:06;39.33;;;17.73;;
6105;SDS011;3083;51.508;7.966;2023-04-21T02:37:34;44.50;;;18.93;;
6105;SDS011;3083;51.508;7.966;2023-04-21T02:40:01;40.67;;;17.53;;
6105;SDS011;3083;51.508;7.966;2023-04-21T02:42:29;49.10;;;19.93;;
6105;SDS011;3083;51.508;7.966;2023-04-21T02:44:58;42.93;;;19.37;;
6105;SDS011;3083;51.508;7.966;2023-04-21T02:47:24;39.63;;;16.90;;
6105;SDS011;3083;51.508;7.966;2023-04-21T02:49:53;37.90;;;17.40;;
6105;SDS011;3083;51.508;7.966;2023-04-21T02:52:19;46.90;;;20.00;;
6105;SDS011;3083;51.508;7.966;2023-04-21T02:54:46;45.63;;;19.27;;
6105;SDS011;3083;51.508;7.966;2023-04-21T02:57:13;42.47;;;18.80;;
6105;SDS011;3083;51.508;7.966;2023-04-21T02:59:40;43.20;;;18.73;;
6105;SDS011;3083;51.508;7.966;2023-04-21T03:02:07;46.77;;;19.20;;
6105;SDS011;3083;51.508;7.966;2023-04-21T03:04:34;50.77;;;20.20;;
6105;SDS011;3083;51.508;7.966;2023-04-21T03:07:03;43.67;;;19.47;;
6105;SDS011;3083;51.508;7.966;2023-04-21T03:09:30;40.37;;;19.83;;
6105;SDS011;3083;51.508;7.966;2023-04-21T03:11:56;53.20;;;21.50;;
6105;SDS011;3083;51.508;7.966;2023-04-21T03:14:23;42.40;;;20.33;;
6105;SDS011;3083;51.508;7.966;2023-04-21T03:16:50;46.23;;;21.07;;
6105;SDS011;3083;51.508;7.966;2023-04-21T03:19:17;46.73;;;20.60;;
6105;SDS011;3083;51.508;7.966;2023-04-21T03:21:44;51.17;;;21.07;;
6105;SDS011;3083;51.508;7.966;2023-04-21T03:24:12;42.50;;;20.37;;
6105;SDS011;3083;51.508;7.966;2023-04-21T03:26:39;35.83;;;16.57;;
6105;SDS011;3083;51.508;7.966;2023-04-21T03:29:06;43.33;;;20.60;;
6105;SDS011;3083;51.508;7.966;2023-04-21T03:31:33;42.73;;;21.03;;
6105;SDS011;3083;51.508;7.966;2023-04-21T03:34:00;42.67;;;18.87;;
6105;SDS011;3083;51.508;7.966;2023-04-21T03:36:27;44.53;;;19.67;;
6105;SDS011;3083;51.508;7.966;2023-04-21T03:38:54;42.37;;;18.93;;
6105;SDS011;3083;51.508;7.966;2023-04-21T03:41:23;42.87;;;20.57;;
6105;SDS011;3083;51.508;7.966;2023-04-21T03:43:50;44.63;;;21.10;;
6105;SDS011;3083;51.508;7.966;2023-04-21T03:46:18;41.73;;;20.10;;
6105;SDS011;3083;51.508;7.966;2023-04-21T03:48:45;44.10;;;19.83;;
6105;SDS011;3083;51.508;7.966;2023-04-21T03:51:12;42.80;;;19.10;;
6105;SDS011;3083;51.508;7.966;2023-04-21T03:53:40;45.63;;;19.90;;
6105;SDS011;3083;51.508;7.966;2023-04-21T03:56:07;51.27;;;23.00;;
6105;SDS011;3083;51.508;7.966;2023-04-21T03:58:36;43.40;;;19.50;;
6105;SDS011;3083;51.508;7.966;2023-04-21T04:01:03;50.20;;;21.40;;
6105;SDS011;3083;51.508;7.966;2023-04-21T04:03:31;41.57;;;19.90;;
6105;SDS011;3083;51.508;7.966;2023-04-21T04:05:58;39.33;;;18.10;;
6105;SDS011;3083;51.508;7.966;2023-04-21T04:08:28;43.93;;;20.50;;
6105;SDS011;3083;51.508;7.966;2023-04-21T04:10:55;40.20;;;19.30;;
6105;SDS011;3083;51.508;7.966;2023-04-21T04:13:21;39.07;;;18.90;;
6105;SDS011;3083;51.508;7.966;2023-04-21T04:15:50;43.10;;;20.37;;
6105;SDS011;3083;51.508;7.966;2023-04-21T04:18:17;39.17;;;18.90;;
6105;SDS011;3083;51.508;7.966;2023-04-21T04:20:44;46.20;;;21.00;;
6105;SDS011;3083;51.508;7.966;2023-04-21T04:23:11;46.47;;;20.53;;
6105;SDS011;3083;51.508;7.966;2023-04-21T04:25:38;43.00;;;20.30;;
6105;SDS011;3083;51.508;7.966;2023-04-21T04:28:05;44.40;;;19.50;;
6105;SDS011;3083;51.508;7.966;2023-04-21T04:30:33;42.50;;;20.30;;
6105;SDS011;3083;51.508;7.966;2023-04-21T04:33:02;45.87;;;20.50;;
6105;SDS011;3083;51.508;7.966;2023-04-21T04:35:29;47.57;;;21.70;;
6105;SDS011;3083;51.508;7.966;2023-04-21T04:37:56;45.43;;;19.87;;
6105;SDS011;3083;51.508;7.966;2023-04-21T04:40:23;45.80;;;21.37;;
6105;SDS011;3083;51.508;7.966;2023-04-21T04:42:50;42.80;;;20.67;;
6105;SDS011;3083;51.508;7.966;2023-04-21T04:45:17;47.90;;;22.00;;
6105;SDS011;3083;51.508;7.966;2023-04-21T04:47:45;46.37;;;21.23;;
6105;SDS011;3083;51.508;7.966;2023-04-21T04:50:13;49.23;;;22.47;;
6105;SDS011;3083;51.508;7.966;2023-04-21T04:52:40;42.63;;;20.20;;
6105;SDS011;3083;51.508;7.966;2023-04-21T04:55:08;46.17;;;19.97;;
6105;SDS011;3083;51.508;7.966;2023-04-21T04:57:35;43.83;;;20.17;;
6105;SDS011;3083;51.508;7.966;2023-04-21T05:00:03;48.80;;;21.37;;
6105;SDS011;3083;51.508;7.966;2023-04-21T05:02:32;48.73;;;20.97;;
6105;SDS011;3083;51.508;7.966;2023-04-21T05:04:59;42.47;;;21.23;;
6105;SDS011;3083;51.508;7.966;2023-04-21T05:07:27;54.97;;;21.73;;
6105;SDS011;3083;51.508;7.966;2023-04-21T05:09:54;52.40;;;23.03;;
6105;SDS011;3083;51.508;7.966;2023-04-21T05:12:21;50.67;;;21.67;;
6105;SDS011;3083;51.508;7.966;2023-04-21T05:14:48;44.00;;;22.13;;
6105;SDS011;3083;51.508;7.966;2023-04-21T05:17:15;45.30;;;20.97;;
6105;SDS011;3083;51.508;7.966;2023-04-21T05:19:42;48.37;;;21.47;;
6105;SDS011;3083;51.508;7.966;2023-04-21T05:22:09;49.23;;;21.13;;
6105;SDS011;3083;51.508;7.966;2023-04-21T05:24:39;48.43;;;22.00;;
6105;SDS011;3083;51.508;7.966;2023-04-21T05:27:07;44.40;;;20.50;;
6105;SDS011;3083;51.508;7.966;2023-04-21T05:29:33;42.83;;;20.67;;
6105;SDS011;3083;51.508;7.966;2023-04-21T05:32:00;42.30;;;20.20;;
6105;SDS011;3083;51.508;7.966;2023-04-21T05:34:27;43.80;;;19.73;;
6105;SDS011;3083;51.508;7.966;2023-04-21T05:36:54;49.47;;;22.07;;
6105;SDS011;3083;51.508;7.966;2023-04-21T05:39:21;46.83;;;21.50;;
6105;SDS011;3083;51.508;7.966;2023-04-21T05:41:49;46.30;;;21.17;;
6105;SDS011;3083;51.508;7.966;2023-04-21T05:44:16;46.40;;;20.30;;
6105;SDS011;3083;51.508;7.966;2023-04-21T05:46:43;42.40;;;20.23;;
6105;SDS011;3083;51.508;7.966;2023-04-21T05:49:10;44.33;;;20.90;;
6105;SDS011;3083;51.508;7.966;2023-04-21T05:51:37;44.00;;;19.53;;
6105;SDS011;3083;51.508;7.966;2023-04-21T05:54:04;46.37;;;21.80;;
6105;SDS011;3083;51.508;7.966;2023-04-21T05:56:31;48.10;;;21.40;;
6105;SDS011;3083;51.508;7.966;2023-04-21T05:58:59;42.07;;;20.33;;
6105;SDS011;3083;51.508;7.966;2023-04-21T06:01:26;45.93;;;19.90;;
6105;SDS011;3083;51.508;7.966;2023-04-21T06:03:53;49.10;;;20.87;;
6105;SDS011;3083;51.508;7.966;2023-04-21T06:06:20;47.87;;;21.07;;
6105;SDS011;3083;51.508;7.966;2023-04-21T06:08:47;51.03;;;23.27;;
6105;SDS011;3083;51.508;7.966;2023-04-21T06:11:14;42.67;;;20.80;;
6105;SDS011;3083;51.508;7.966;2023-04-21T06:13:41;49.63;;;22.80;;
6105;SDS011;3083;51.508;7.966;2023-04-21T06:16:09;49.93;;;20.93;;
6105;SDS011;3083;51.508;7.966;2023-04-21T06:18:36;44.33;;;21.13;;
6105;SDS011;3083;51.508;7.966;2023-04-21T06:21:03;49.60;;;21.40;;
6105;SDS011;3083;51.508;7.966;2023-04-21T06:23:30;45.83;;;21.33;;
6105;SDS011;3083;51.508;7.966;2023-04-21T06:25:58;51.80;;;22.30;;
6105;SDS011;3083;51.508;7.966;2023-04-21T06:28:28;50.33;;;22.43;;
6105;SDS011;3083;51.508;7.966;2023-04-21T06:30:55;50.27;;;22.43;;
6105;SDS011;3083;51.508;7.966;2023-04-21T06:33:23;49.47;;;21.67;;
6105;SDS011;3083;51.508;7.966;2023-04-21T06:35:50;55.10;;;24.57;;
6105;SDS011;3083;51.508;7.966;2023-04-21T06:38:17;51.83;;;23.57;;
6105;SDS011;3083;51.508;7.966;2023-04-21T06:40:44;45.33;;;20.73;;
6105;SDS011;3083;51.508;7.966;2023-04-21T06:43:11;42.03;;;21.20;;
6105;SDS011;3083;51.508;7.966;2023-04-21T06:45:38;43.00;;;20.90;;
6105;SDS011;3083;51.508;7.966;2023-04-21T06:48:05;45.93;;;20.40;;
6105;SDS011;3083;51.508;7.966;2023-04-21T06:50:33;40.10;;;20.17;;
6105;SDS011;3083;51.508;7.966;2023-04-21T06:53:00;41.80;;;20.70;;
6105;SDS011;3083;51.508;7.966;2023-04-21T06:55:27;41.63;;;20.30;;
6105;SDS011;3083;51.508;7.966;2023-04-21T06:57:54;43.50;;;20.10;;
6105;SDS011;3083;51.508;7.966;2023-04-21T07:00:21;38.33;;;19.90;;
6105;SDS011;3083;51.508;7.966;2023-04-21T07:02:48;40.13;;;20.10;;
6105;SDS011;3083;51.508;7.966;2023-04-21T07:05:15;43.17;;;20.17;;
6105;SDS011;3083;51.508;7.966;2023-04-21T07:07:43;41.20;;;20.13;;
6105;SDS011;3083;51.508;7.966;2023-04-21T07:10:10;36.97;;;18.70;;
6105;SDS011;3083;51.508;7.966;2023-04-21T07:12:43;40.10;;;19.97;;
6105;SDS011;3083;51.508;7.966;2023-04-21T07:15:10;36.87;;;19.77;;
6105;SDS011;3083;51.508;7.966;2023-04-21T07:17:37;42.77;;;20.37;;
6105;SDS011;3083;51.508;7.966;2023-04-21T07:20:04;39.90;;;19.77;;
6105;SDS011;3083;51.508;7.966;2023-04-21T07:22:32;38.47;;;19.60;;
6105;SDS011;3083;51.508;7.966;2023-04-21T07:25:01;42.83;;;19.60;;
6105;SDS011;3083;51.508;7.966;2023-04-21T07:27:30;39.40;;;19.73;;
6105;SDS011;3083;51.508;7.966;2023-04-21T07:29:57;36.03;;;17.87;;
6105;SDS011;3083;51.508;7.966;2023-04-21T07:32:24;35.20;;;18.30;;
6105;SDS011;3083;51.508;7.966;2023-04-21T07:34:51;35.83;;;18.30;;
6105;SDS011;3083;51.508;7.966;2023-04-21T07:37:18;36.03;;;17.60;;
6105;SDS011;3083;51.508;7.966;2023-04-21T07:39:45;37.13;;;17.10;;
6105;SDS011;3083;51.508;7.966;2023-04-21T07:42:13;35.33;;;17.83;;
6105;SDS011;3083;51.508;7.966;2023-04-21T07:44:40;33.20;;;16.30;;
6105;SDS011;3083;51.508;7.966;2023-04-21T07:47:07;31.97;;;17.20;;
6105;SDS011;3083;51.508;7.966;2023-04-21T07:49:34;29.17;;;15.90;;
6105;SDS011;3083;51.508;7.966;2023-04-21T07:52:01;35.73;;;17.27;;
6105;SDS011;3083;51.508;7.966;2023-04-21T07:54:28;32.80;;;17.17;;
6105;SDS011;3083;51.508;7.966;2023-04-21T07:56:55;34.47;;;18.60;;
6105;SDS011;3083;51.508;7.966;2023-04-21T07:59:23;32.53;;;16.90;;
6105;SDS011;3083;51.508;7.966;2023-04-21T08:01:50;27.97;;;16.30;;
6105;SDS011;3083;51.508;7.966;2023-04-21T08:04:17;32.67;;;16.90;;
6105;SDS011;3083;51.508;7.966;2023-04-21T08:06:44;36.70;;;18.53;;
6105;SDS011;3083;51.508;7.966;2023-04-21T08:09:11;32.77;;;16.87;;
6105;SDS011;3083;51.508;7.966;2023-04-21T08:11:38;35.27;;;17.40;;
6105;SDS011;3083;51.508;7.966;2023-04-21T08:14:05;35.10;;;17.73;;
6105;SDS011;3083;51.508;7.966;2023-04-21T08:16:35;35.10;;;18.00;;
6105;SDS011;3083;51.508;7.966;2023-04-21T08:19:02;34.17;;;16.43;;
6105;SDS011;3083;51.508;7.966;2023-04-21T08:21:30;33.10;;;17.00;;
6105;SDS011;3083;51.508;7.966;2023-04-21T08:23:58;34.67;;;17.30;;
6105;SDS011;3083;51.508;7.966;2023-04-21T08:26:25;32.73;;;17.40;;
6105;SDS011;3083;51.508;7.966;2023-04-21T08:28:54;39.47;;;17.40;;
6105;SDS011;3083;51.508;7.966;2023-04-21T08:31:21;33.20;;;17.00;;
6105;SDS011;3083;51.508;7.966;2023-04-21T08:33:49;28.17;;;16.47;;
6105;SDS011;3083;51.508;7.966;2023-04-21T08:36:16;34.17;;;18.10;;
6105;SDS011;3083;51.508;7.966;2023-04-21T08:38:44;32.67;;;17.40;;
6105;SDS011;3083;51.508;7.966;2023-04-21T08:41:11;32.83;;;16.63;;
6105;SDS011;3083;51.508;7.966;2023-04-21T08:43:38;32.30;;;16.77;;
6105;SDS011;3083;51.508;7.966;2023-04-21T08:46:06;32.43;;;16.53;;
6105;SDS011;3083;51.508;7.966;2023-04-21T08:48:34;28.40;;;16.10;;
6105;SDS011;3083;51.508;7.966;2023-04-21T08:51:05;31.03;;;16.70;;
6105;SDS011;3083;51.508;7.966;2023-04-21T08:53:33;30.40;;;17.50;;
6105;SDS011;3083;51.508;7.966;2023-04-21T08:56:01;29.33;;;15.47;;
6105;SDS011;3083;51.508;7.966;2023-04-21T08:58:28;32.03;;;18.10;;
6105;SDS011;3083;51.508;7.966;2023-04-21T09:00:55;31.03;;;16.03;;
6105;SDS011;3083;51.508;7.966;2023-04-21T09:03:23;30.90;;;16.10;;
6105;SDS011;3083;51.508;7.966;2023-04-21T09:05:56;36.63;;;17.00;;
6105;SDS011;3083;51.508;7.966;2023-04-21T09:08:25;27.50;;;15.47;;
6105;SDS011;3083;51.508;7.966;2023-04-21T09:10:53;31.30;;;16.50;;
6105;SDS011;3083;51.508;7.966;2023-04-21T09:13:27;31.13;;;15.10;;
6105;SDS011;3083;51.508;7.966;2023-04-21T09:15:55;27.50;;;15.20;;
6105;SDS011;3083;51.508;7.966;2023-04-21T09:18:22;30.17;;;15.27;;
6105;SDS011;3083;51.508;7.966;2023-04-21T09:20:51;27.40;;;15.27;;
6105;SDS011;3083;51.508;7.966;2023-04-21T09:23:31;29.57;;;15.03;;
6105;SDS011;3083;51.508;7.966;2023-04-21T09:26:06;26.57;;;15.40;;
6105;SDS011;3083;51.508;7.966;2023-04-21T09:28:33;27.83;;;14.60;;
6105;SDS011;3083;51.508;7.966;2023-04-21T09:30:59;29.30;;;16.37;;
6105;SDS011;3083;51.508;7.966;2023-04-21T09:33:26;28.03;;;15.83;;
6105;SDS011;3083;51.508;7.966;2023-04-21T09:35:53;31.40;;;14.90;;
6105;SDS011;3083;51.508;7.966;2023-04-21T09:38:21;25.60;;;14.90;;
6105;SDS011;3083;51.508;7.966;2023-04-21T09:40:56;25.20;;;13.60;;
6105;SDS011;3083;51.508;7.966;2023-04-21T09:43:23;25.60;;;15.27;;
6105;SDS011;3083;51.508;7.966;2023-04-21T09:45:51;28.60;;;15.73;;
6105;SDS011;3083;51.508;7.966;2023-04-21T09:48:21;26.00;;;15.60;;
6105;SDS011;3083;51.508;7.966;2023-04-21T09:50:52;26.23;;;16.10;;
6105;SDS011;3083;51.508;7.966;2023-04-21T09:53:20;30.80;;;16.83;;
6105;SDS011;3083;51.508;7.966;2023-04-21T09:55:52;32.17;;;16.33;;
6105;SDS011;3083;51.508;7.966;2023-04-21T09:58:23;28.40;;;16.40;;
6105;SDS011;3083;51.508;7.966;2023-04-21T10:00:53;27.87;;;16.20;;
6105;SDS011;3083;51.508;7.966;2023-04-21T10:03:22;30.87;;;17.93;;
6105;SDS011;3083;51.508;7.966;2023-04-21T10:05:52;26.07;;;16.57;;
6105;SDS011;3083;51.508;7.966;2023-04-21T10:08:20;29.30;;;16.80;;
6105;SDS011;3083;51.508;7.966;2023-04-21T10:10:47;30.07;;;16.43;;
6105;SDS011;3083;51.508;7.966;2023-04-21T10:13:16;27.90;;;15.70;;
6105;SDS011;3083;51.508;7.966;2023-04-21T10:15:45;30.50;;;16.53;;
6105;SDS011;3083;51.508;7.966;2023-04-21T10:18:14;25.03;;;14.90;;
6105;SDS011;3083;51.508;7.966;2023-04-21T10:20:51;25.93;;;14.50;;
6105;SDS011;3083;51.508;7.966;2023-04-21T10:23:29;24.90;;;14.10;;
6105;SDS011;3083;51.508;7.966;2023-04-21T10:26:00;24.13;;;14.43;;
6105;SDS011;3083;51.508;7.966;2023-04-21T10:31:31;26.10;;;13.97;;
6105;SDS011;3083;51.508;7.966;2023-04-21T10:34:11;22.80;;;13.37;;
6105;SDS011;3083;51.508;7.966;2023-04-21T10:36:48;22.10;;;13.53;;
6105;SDS011;3083;51.508;7.966;2023-04-21T10:39:52;17.93;;;9.73;;
6105;SDS011;3083;51.508;7.966;2023-04-21T10:42:32;24.20;;;13.20;;
6105;SDS011;3083;51.508;7.966;2023-04-21T10:45:10;19.10;;;11.50;;
6105;SDS011;3083;51.508;7.966;2023-04-21T10:47:40;23.40;;;12.93;;
6105;SDS011;3083;51.508;7.966;2023-04-21T10:50:16;22.17;;;11.03;;
6105;SDS011;3083;51.508;7.966;2023-04-21T10:52:52;22.27;;;11.80;;
6105;SDS011;3083;51.508;7.966;2023-04-21T10:55:21;21.60;;;12.37;;
6105;SDS011;3083;51.508;7.966;2023-04-21T10:57:51;19.57;;;12.03;;
6105;SDS011;3083;51.508;7.966;2023-04-21T11:00:19;22.20;;;12.33;;
6105;SDS011;3083;51.508;7.966;2023-04-21T11:02:55;20.20;;;12.17;;
6105;SDS011;3083;51.508;7.966;2023-04-21T11:05:27;20.80;;;12.07;;
6105;SDS011;3083;51.508;7.966;2023-04-21T11:08:02;21.20;;;12.97;;
6105;SDS011;3083;51.508;7.966;2023-04-21T11:10:42;21.30;;;13.10;;
6105;SDS011;3083;51.508;7.966;2023-04-21T11:13:14;19.40;;;11.50;;
6105;SDS011;3083;51.508;7.966;2023-04-21T11:15:41;23.00;;;12.10;;
6105;SDS011;3083;51.508;7.966;2023-04-21T11:21:09;19.30;;;11.93;;
6105;SDS011;3083;51.508;7.966;2023-04-21T11:23:40;20.47;;;12.10;;
6105;SDS011;3083;51.508;7.966;2023-04-21T11:26:07;18.07;;;12.00;;
6105;SDS011;3083;51.508;7.966;2023-04-21T11:28:34;19.60;;;12.10;;
6105;SDS011;3083;51.508;7.966;2023-04-21T11:31:02;19.10;;;11.73;;
6105;SDS011;3083;51.508;7.966;2023-04-21T11:33:29;18.47;;;11.20;;
6105;SDS011;3083;51.508;7.966;2023-04-21T11:35:57;21.30;;;11.93;;
6105;SDS011;3083;51.508;7.966;2023-04-21T11:38:32;17.60;;;12.07;;
6105;SDS011;3083;51.508;7.966;2023-04-21T11:41:03;18.20;;;11.20;;
6105;SDS011;3083;51.508;7.966;2023-04-21T11:43:30;18.17;;;10.83;;
6105;SDS011;3083;51.508;7.966;2023-04-21T11:46:09;20.80;;;11.07;;
6105;SDS011;3083;51.508;7.966;2023-04-21T11:48:37;18.70;;;10.67;;
6105;SDS011;3083;51.508;7.966;2023-04-21T11:51:12;24.97;;;10.80;;
6105;SDS011;3083;51.508;7.966;2023-04-21T11:53:40;17.97;;;10.27;;
6105;SDS011;3083;51.508;7.966;2023-04-21T11:56:07;17.63;;;10.87;;
6105;SDS011;3083;51.508;7.966;2023-04-21T11:58:37;18.30;;;11.30;;
6105;SDS011;3083;51.508;7.966;2023-04-21T12:01:07;17.23;;;10.87;;
6105;SDS011;3083;51.508;7.966;2023-04-21T12:03:35;16.93;;;10.63;;
6105;SDS011;3083;51.508;7.966;2023-04-21T12:06:02;18.50;;;11.27;;
6105;SDS011;3083;51.508;7.966;2023-04-21T12:08:32;18.20;;;11.40;;
6105;SDS011;3083;51.508;7.966;2023-04-21T12:10:59;25.20;;;12.27;;
6105;SDS011;3083;51.508;7.966;2023-04-21T12:13:27;17.93;;;12.10;;
6105;SDS011;3083;51.508;7.966;2023-04-21T12:15:56;19.40;;;12.60;;
6105;SDS011;3083;51.508;7.966;2023-04-21T12:18:27;20.10;;;12.50;;
6105;SDS011;3083;51.508;7.966;2023-04-21T12:20:56;18.40;;;11.40;;
6105;SDS011;3083;51.508;7.966;2023-04-21T12:23:26;17.70;;;11.80;;
6105;SDS011;3083;51.508;7.966;2023-04-21T12:25:54;18.40;;;11.80;;
6105;SDS011;3083;51.508;7.966;2023-04-21T12:28:22;21.90;;;12.53;;
6105;SDS011;3083;51.508;7.966;2023-04-21T12:30:50;17.27;;;11.43;;
6105;SDS011;3083;51.508;7.966;2023-04-21T12:33:16;19.00;;;11.60;;
6105;SDS011;3083;51.508;7.966;2023-04-21T12:35:43;19.10;;;10.60;;
6105;SDS011;3083;51.508;7.966;2023-04-21T12:38:10;16.90;;;10.90;;
6105;SDS011;3083;51.508;7.966;2023-04-21T12:40:37;15.80;;;11.03;;
6105;SDS011;3083;51.508;7.966;2023-04-21T12:43:06;17.33;;;11.50;;
6105;SDS011;3083;51.508;7.966;2023-04-21T12:45:32;17.77;;;11.30;;
6105;SDS011;3083;51.508;7.966;2023-04-21T12:47:59;15.40;;;9.80;;
6105;SDS011;3083;51.508;7.966;2023-04-21T12:50:27;13.57;;;9.80;;
6105;SDS011;3083;51.508;7.966;2023-04-21T12:52:54;13.70;;;9.90;;
6105;SDS011;3083;51.508;7.966;2023-04-21T12:55:21;18.10;;;11.87;;
6105;SDS011;3083;51.508;7.966;2023-04-21T12:57:48;16.20;;;10.50;;
6105;SDS011;3083;51.508;7.966;2023-04-21T13:00:18;15.37;;;10.10;;
6105;SDS011;3083;51.508;7.966;2023-04-21T13:02:45;18.93;;;9.93;;
6105;SDS011;3083;51.508;7.966;2023-04-21T13:05:12;16.47;;;11.00;;
6105;SDS011;3083;51.508;7.966;2023-04-21T13:07:39;19.53;;;11.50;;
6105;SDS011;3083;51.508;7.966;2023-04-21T13:10:06;15.77;;;10.70;;
6105;SDS011;3083;51.508;7.966;2023-04-21T13:12:34;17.00;;;10.67;;
6105;SDS011;3083;51.508;7.966;2023-04-21T13:15:01;18.33;;;11.00;;
6105;SDS011;3083;51.508;7.966;2023-04-21T13:17:29;14.50;;;10.60;;
6105;SDS011;3083;51.508;7.966;2023-04-21T13:19:57;19.73;;;12.07;;
6105;SDS011;3083;51.508;7.966;2023-04-21T13:22:24;19.13;;;12.93;;
6105;SDS011;3083;51.508;7.966;2023-04-21T13:24:51;15.90;;;11.80;;
6105;SDS011;3083;51.508;7.966;2023-04-21T13:27:17;16.43;;;11.30;;
6105;SDS011;3083;51.508;7.966;2023-04-21T13:29:44;16.40;;;11.07;;
6105;SDS011;3083;51.508;7.966;2023-04-21T13:32:13;19.17;;;12.00;;
6105;SDS011;3083;51.508;7.966;2023-04-21T13:34:41;14.80;;;10.20;;
6105;SDS011;3083;51.508;7.966;2023-04-21T13:37:08;18.07;;;11.10;;
6105;SDS011;3083;51.508;7.966;2023-04-21T13:39:39;17.87;;;10.97;;
6105;SDS011;3083;51.508;7.966;2023-04-21T13:42:06;16.33;;;10.50;;
6105;SDS011;3083;51.508;7.966;2023-04-21T13:44:33;17.60;;;10.53;;
6105;SDS011;3083;51.508;7.966;2023-04-21T13:47:00;16.93;;;11.77;;
6105;SDS011;3083;51.508;7.966;2023-04-21T13:49:27;19.30;;;11.63;;
6105;SDS011;3083;51.508;7.966;2023-04-21T13:51:55;13.40;;;8.50;;
6105;SDS011;3083;51.508;7.966;2023-04-21T13:54:22;14.70;;;8.67;;
6105;SDS011;3083;51.508;7.966;2023-04-21T13:56:49;14.27;;;8.83;;
6105;SDS011;3083;51.508;7.966;2023-04-21T13:59:16;14.47;;;8.97;;
6105;SDS011;3083;51.508;7.966;2023-04-21T14:01:45;16.17;;;10.23;;
6105;SDS011;3083;51.508;7.966;2023-04-21T14:04:12;12.70;;;8.90;;
6105;SDS011;3083;51.508;7.966;2023-04-21T14:06:39;16.37;;;9.53;;
6105;SDS011;3083;51.508;7.966;2023-04-21T14:09:07;10.07;;;7.37;;
6105;SDS011;3083;51.508;7.966;2023-04-21T14:11:34;15.07;;;9.73;;
6105;SDS011;3083;51.508;7.966;2023-04-21T14:14:01;19.00;;;9.67;;
6105;SDS011;3083;51.508;7.966;2023-04-21T14:16:28;17.20;;;8.90;;
6105;SDS011;3083;51.508;7.966;2023-04-21T14:18:55;14.37;;;7.97;;
6105;SDS011;3083;51.508;7.966;2023-04-21T14:21:22;14.70;;;8.20;;
6105;SDS011;3083;51.508;7.966;2023-04-21T14:23:49;17.40;;;10.67;;
6105;SDS011;3083;51.508;7.966;2023-04-21T14:26:18;17.50;;;9.30;;
6105;SDS011;3083;51.508;7.966;2023-04-21T14:28:45;15.10;;;10.10;;
6105;SDS011;3083;51.508;7.966;2023-04-21T14:31:12;14.40;;;9.47;;
6105;SDS011;3083;51.508;7.966;2023-04-21T14:33:39;16.23;;;9.90;;
6105;SDS011;3083;51.508;7.966;2023-04-21T14:36:06;28.23;;;10.77;;
6105;SDS011;3083;51.508;7.966;2023-04-21T14:38:34;14.57;;;9.60;;
6105;SDS011;3083;51.508;7.966;2023-04-21T14:41:01;13.63;;;8.43;;
6105;SDS011;3083;51.508;7.966;2023-04-21T14:43:30;12.70;;;8.87;;
6105;SDS011;3083;51.508;7.966;2023-04-21T14:45:56;17.43;;;9.57;;
6105;SDS011;3083;51.508;7.966;2023-04-21T14:48:23;14.87;;;9.50;;
6105;SDS011;3083;51.508;7.966;2023-04-21T14:50:51;15.83;;;10.27;;
6105;SDS011;3083;51.508;7.966;2023-04-21T14:53:18;15.20;;;9.93;;
6105;SDS011;3083;51.508;7.966;2023-04-21T14:55:45;20.30;;;9.60;;
6105;SDS011;3083;51.508;7.966;2023-04-21T14:58:12;16.47;;;9.00;;